Time;durP1;ratioP1;P1;durP2;ratioP2;P2;SDS_P1;SDS_P2;PMS_P1;PMS_P2;Temp;Humidity;BMP_temperature;BMP_pressure;BME280_temperature;BME280_humidity;BME280_pressure;Samples;Min_cycle;Max_cycle;Signal;HPM_P1;HPM_P2
2022/09/09 00:02:08;;;;;;;7.82;4.30;;;15.50;99.90;;;;;;5053952;28;20049;-62
2022/09/09 00:04:36;;;;;;;8.30;3.80;;;15.60;99.90;;;;;;5060971;28;20051;-62
2022/09/09 00:07:46;;;;;;;8.70;4.10;;;15.50;99.90;;;;;;5069505;28;20060;-62
2022/09/09 00:10:27;;;;;;;7.80;4.35;;;15.50;99.90;;;;;;5047986;28;20116;-63
2022/09/09 00:13:30;;;;;;;7.40;5.00;;;15.50;99.90;;;;;;5045892;28;20132;-62
2022/09/09 00:16:10;;;;;;;8.77;4.63;;;15.50;99.90;;;;;;5058917;28;20056;-65
2022/09/09 00:18:50;;;;;;;8.50;4.45;;;15.50;99.90;;;;;;5061676;28;20167;-65
2022/09/09 00:21:17;;;;;;;7.55;4.53;;;15.50;99.90;;;;;;5062476;28;20044;-63
2022/09/09 00:23:51;;;;;;;6.65;4.63;;;15.40;99.90;;;;;;5068050;28;20059;-62
2022/09/09 00:26:19;;;;;;;7.10;4.82;;;15.40;99.90;;;;;;5069867;28;20098;-62
2022/09/09 00:29:09;;;;;;;7.18;4.78;;;15.40;99.90;;;;;;5068511;28;20402;-63
2022/09/09 00:31:37;;;;;;;8.55;4.72;;;15.50;99.90;;;;;;5070362;28;20093;-62
2022/09/09 00:34:24;;;;;;;8.98;5.10;;;15.50;99.90;;;;;;5063390;28;20052;-63
2022/09/09 00:36:52;;;;;;;8.93;4.88;;;15.50;99.90;;;;;;5066323;28;20036;-63
2022/09/09 00:39:43;;;;;;;8.30;4.63;;;15.50;99.90;;;;;;5088600;28;20044;-66
2022/09/09 00:42:23;;;;;;;8.35;4.57;;;15.50;99.90;;;;;;5062573;28;20048;-63
2022/09/09 00:44:48;;;;;;;7.75;4.50;;;15.50;99.90;;;;;;5061159;28;20044;-64
2022/09/09 00:47:25;;;;;;;8.05;4.40;;;15.50;99.90;;;;;;5065899;28;20519;-64
2022/09/09 00:49:58;;;;;;;8.80;4.18;;;15.50;99.90;;;;;;5069770;28;20450;-62
2022/09/09 00:52:43;;;;;;;;;;;15.60;99.90;;;;;;5068993;28;20037;-62
2022/09/09 00:55:21;;;;;;;7.00;4.22;;;15.60;99.90;;;;;;5065433;28;19995;-63
2022/09/09 00:57:51;;;;;;;10.55;4.50;;;15.60;99.90;;;;;;5065964;28;20036;-62
2022/09/09 01:00:23;;;;;;;7.43;4.45;;;15.60;99.90;;;;;;5070038;28;20128;-62
2022/09/09 01:03:17;;;;;;;7.43;4.30;;;15.60;99.90;;;;;;5064044;28;20036;-64
2022/09/09 01:06:00;;;;;;;7.80;4.30;;;15.60;99.90;;;;;;5067938;28;20416;-63
2022/09/09 01:08:55;;;;;;;6.70;4.00;;;15.60;99.90;;;;;;5064306;28;20025;-63
2022/09/09 01:11:36;;;;;;;6.68;4.22;;;15.60;99.90;;;;;;5046564;28;20045;-63
2022/09/09 01:14:32;;;;;;;7.97;4.22;;;15.60;99.90;;;;;;5057305;28;20212;-64
2022/09/09 01:17:05;;;;;;;6.07;3.97;;;15.60;99.90;;;;;;5060804;28;20567;-64
2022/09/09 01:20:04;;;;;;;7.82;4.18;;;15.60;99.90;;;;;;5064792;28;20451;-64
2022/09/09 01:22:55;;;;;;;6.22;3.75;;;15.60;99.90;;;;;;5046733;28;20055;-64
2022/09/09 01:25:58;;;;;;;7.68;4.22;;;15.60;99.90;;;;;;5064815;28;20377;-64
2022/09/09 01:28:27;;;;;;;9.45;4.05;;;15.60;99.90;;;;;;5056292;28;20040;-64
2022/09/09 01:30:54;;;;;;;6.70;3.72;;;15.60;99.90;;;;;;5069550;28;20036;-64
2022/09/09 01:33:20;;;;;;;7.25;3.90;;;15.60;99.90;;;;;;5063641;28;20044;-63
2022/09/09 01:35:50;;;;;;;8.68;4.05;;;15.60;99.90;;;;;;5065503;28;20029;-64
2022/09/09 01:38:19;;;;;;;7.45;3.90;;;15.60;99.90;;;;;;5069006;28;20090;-63
2022/09/09 01:40:44;;;;;;;6.50;3.92;;;15.70;99.90;;;;;;5064411;28;20485;-63
2022/09/09 01:43:10;;;;;;;7.47;3.90;;;15.70;99.90;;;;;;5067831;28;20040;-63
2022/09/09 01:45:38;;;;;;;8.00;3.60;;;15.70;99.90;;;;;;5060173;28;20040;-63
2022/09/09 01:48:04;;;;;;;7.95;3.72;;;15.70;99.90;;;;;;5065619;28;20040;-64
2022/09/09 01:50:29;;;;;;;8.30;3.75;;;15.70;99.90;;;;;;5039403;28;20049;-63
2022/09/09 01:52:59;;;;;;;6.80;3.90;;;15.70;99.90;;;;;;5071705;28;20051;-63
2022/09/09 01:56:01;;;;;;;8.20;3.55;;;15.70;99.90;;;;;;5067466;28;20045;-63
2022/09/09 01:59:01;;;;;;;6.85;3.78;;;15.80;99.90;;;;;;5068673;28;20052;-63
2022/09/09 02:01:27;;;;;;;7.82;3.47;;;15.80;99.90;;;;;;5064534;28;20395;-64
2022/09/09 02:03:55;;;;;;;6.57;3.75;;;15.80;99.90;;;;;;5071418;28;20056;-63
2022/09/09 02:06:27;;;;;;;7.13;3.42;;;15.80;99.90;;;;;;5071391;28;20499;-64
2022/09/09 02:08:59;;;;;;;7.13;4.03;;;15.80;99.90;;;;;;5072010;28;20053;-63
2022/09/09 02:11:27;;;;;;;9.35;4.13;;;15.80;99.90;;;;;;5069852;28;20044;-64
2022/09/09 02:14:05;;;;;;;7.38;4.15;;;15.80;99.90;;;;;;5072275;28;20052;-64
2022/09/09 02:16:38;;;;;;;7.00;3.75;;;15.80;99.90;;;;;;5067668;28;20036;-64
2022/09/09 02:19:08;;;;;;;8.65;4.03;;;15.80;99.90;;;;;;5066215;28;20039;-64
2022/09/09 02:21:34;;;;;;;8.73;3.85;;;15.80;99.90;;;;;;5071449;28;20115;-64
2022/09/09 02:24:04;;;;;;;9.85;4.45;;;15.80;99.90;;;;;;5058487;28;20056;-63
2022/09/09 02:26:33;;;;;;;6.38;3.85;;;15.70;99.90;;;;;;5069483;28;20048;-64
2022/09/09 02:29:03;;;;;;;5.90;3.85;;;15.80;99.90;;;;;;5058383;28;20048;-63
2022/09/09 02:31:29;;;;;;;8.75;3.70;;;15.70;99.90;;;;;;5065446;28;20036;-64
2022/09/09 02:33:58;;;;;;;7.15;3.95;;;15.70;99.90;;;;;;5053419;28;20449;-64
2022/09/09 02:36:29;;;;;;;7.68;3.75;;;15.70;99.90;;;;;;5071470;28;20056;-64
2022/09/09 02:38:56;;;;;;;7.32;4.28;;;15.70;99.90;;;;;;5070978;28;20040;-64
2022/09/09 02:41:31;;;;;;;5.78;3.85;;;15.70;99.90;;;;;;5071358;28;20044;-62
2022/09/09 02:43:56;;;;;;;8.23;4.45;;;15.70;99.90;;;;;;5064199;28;20052;-63
2022/09/09 02:46:40;;;;;;;7.72;3.95;;;15.70;99.90;;;;;;5072362;28;20102;-63
2022/09/09 02:49:21;;;;;;;6.97;4.03;;;15.80;99.90;;;;;;5071494;28;20286;-64
2022/09/09 02:52:02;;;;;;;10.93;4.28;;;15.80;99.90;;;;;;5069200;28;20032;-64
2022/09/09 02:54:32;;;;;;;5.43;3.53;;;15.70;99.90;;;;;;5067491;28;20601;-64
2022/09/09 02:57:25;;;;;;;6.28;4.35;;;15.70;99.90;;;;;;5068627;28;20048;-63
2022/09/09 02:59:52;;;;;;;7.93;5.10;;;15.70;99.90;;;;;;5071037;28;20032;-63
2022/09/09 03:02:18;;;;;;;8.43;5.00;;;15.70;99.90;;;;;;5063103;28;20055;-64
2022/09/09 03:04:44;;;;;;;6.57;4.80;;;15.80;99.90;;;;;;5069676;28;20037;-64
2022/09/09 03:07:11;;;;;;;7.53;5.05;;;15.70;99.90;;;;;;5069795;28;20389;-64
2022/09/09 03:09:37;;;;;;;8.00;5.18;;;15.70;99.90;;;;;;5069149;28;20032;-64
2022/09/09 03:12:06;;;;;;;7.72;5.32;;;15.70;99.90;;;;;;5071821;28;20032;-64
2022/09/09 03:14:32;;;;;;;9.65;5.28;;;15.70;99.90;;;;;;5064475;28;20094;-62
2022/09/09 03:17:00;;;;;;;9.80;5.50;;;15.70;99.90;;;;;;5062614;28;20437;-64
2022/09/09 03:19:27;;;;;;;7.15;5.28;;;15.60;99.90;;;;;;5067912;28;20120;-63
2022/09/09 03:21:53;;;;;;;8.50;5.32;;;15.60;99.90;;;;;;5070217;28;20500;-63
2022/09/09 03:24:19;;;;;;;8.60;5.13;;;15.70;99.90;;;;;;5059762;28;20037;-63
2022/09/09 03:26:45;;;;;;;7.68;4.90;;;15.60;99.90;;;;;;5065785;28;20037;-63
2022/09/09 03:29:15;;;;;;;9.02;5.38;;;15.60;99.90;;;;;;5070267;28;20044;-64
2022/09/09 03:31:42;;;;;;;7.93;5.30;;;15.60;99.90;;;;;;5065721;28;20106;-63
2022/09/09 03:34:08;;;;;;;8.25;4.78;;;15.60;99.90;;;;;;5070349;28;20041;-64
2022/09/09 03:36:33;;;;;;;9.45;4.60;;;15.60;99.90;;;;;;5071290;28;20515;-63
2022/09/09 03:39:00;;;;;;;10.23;5.30;;;15.60;99.90;;;;;;5071415;28;20055;-63
2022/09/09 03:41:26;;;;;;;7.53;4.55;;;15.60;99.90;;;;;;5068741;28;20516;-64
2022/09/09 03:43:52;;;;;;;7.53;4.65;;;15.60;99.90;;;;;;5070967;28;20063;-63
2022/09/09 03:46:22;;;;;;;8.23;4.50;;;15.60;99.90;;;;;;5069235;28;20076;-64
2022/09/09 03:48:48;;;;;;;7.75;4.25;;;15.60;99.90;;;;;;5069376;28;20568;-63
2022/09/09 03:51:15;;;;;;;9.88;5.22;;;15.60;99.90;;;;;;5070499;28;20040;-62
2022/09/09 03:53:41;;;;;;;8.55;5.47;;;15.60;99.90;;;;;;5068472;28;20043;-64
2022/09/09 03:56:07;;;;;;;9.30;5.68;;;15.60;99.90;;;;;;5070820;28;20055;-64
2022/09/09 03:58:34;;;;;;;7.57;5.40;;;15.60;99.90;;;;;;5070365;28;20025;-63
2022/09/09 04:01:14;;;;;;;8.65;5.82;;;15.60;99.90;;;;;;5068136;28;20658;-64
2022/09/09 04:03:40;;;;;;;11.07;5.97;;;15.50;99.90;;;;;;5065494;28;20048;-62
2022/09/09 04:06:09;;;;;;;7.43;5.85;;;15.50;99.90;;;;;;5051888;28;20480;-63
2022/09/09 04:08:35;;;;;;;8.88;5.80;;;15.50;99.90;;;;;;5069807;28;20044;-63
2022/09/09 04:11:04;;;;;;;10.57;6.40;;;15.40;99.90;;;;;;5065090;28;20049;-63
2022/09/09 04:13:30;;;;;;;10.23;6.75;;;15.50;99.90;;;;;;5066950;28;20131;-63
2022/09/09 04:15:58;;;;;;;9.88;6.35;;;15.50;99.90;;;;;;5070311;28;20116;-62
2022/09/09 04:18:25;;;;;;;14.70;7.53;;;15.50;99.90;;;;;;5067529;28;20055;-61
2022/09/09 04:20:52;;;;;;;10.52;6.88;;;15.40;99.90;;;;;;5069044;28;20058;-63
2022/09/09 04:23:20;;;;;;;10.18;6.55;;;15.40;99.90;;;;;;5068265;28;20484;-63
2022/09/09 04:25:48;;;;;;;10.75;6.60;;;15.40;99.90;;;;;;5064141;28;20417;-64
2022/09/09 04:28:15;;;;;;;9.38;6.60;;;15.40;99.90;;;;;;5063101;28;20029;-64
2022/09/09 04:30:41;;;;;;;10.68;6.60;;;15.40;99.90;;;;;;5068761;28;20098;-62
2022/09/09 04:33:07;;;;;;;9.82;6.57;;;15.40;99.90;;;;;;5067105;28;20404;-64
2022/09/09 04:35:33;;;;;;;9.68;6.47;;;15.40;99.90;;;;;;5065721;28;20036;-63
2022/09/09 04:37:59;;;;;;;11.38;6.60;;;15.30;99.90;;;;;;5062761;28;20069;-62
2022/09/09 04:40:25;;;;;;;8.50;6.50;;;15.30;99.90;;;;;;5069779;28;20040;-63
2022/09/09 04:42:51;;;;;;;8.40;5.88;;;15.30;99.90;;;;;;5065779;28;20045;-64
2022/09/09 04:45:16;;;;;;;10.05;5.80;;;15.20;99.90;;;;;;5069816;28;20124;-64
2022/09/09 04:47:42;;;;;;;12.38;6.25;;;15.30;99.90;;;;;;5069271;28;20416;-64
2022/09/09 04:50:08;;;;;;;9.15;6.20;;;15.30;99.90;;;;;;5067026;28;20040;-63
2022/09/09 04:52:37;;;;;;;8.45;6.20;;;15.20;99.90;;;;;;5046556;28;20063;-63
2022/09/09 04:55:03;;;;;;;10.32;6.10;;;15.20;99.90;;;;;;5066117;28;20041;-63
2022/09/09 04:57:32;;;;;;;10.95;6.35;;;15.20;99.90;;;;;;5068692;28;20098;-61
2022/09/09 04:59:59;;;;;;;9.32;5.90;;;15.10;99.90;;;;;;5063916;28;20045;-63
2022/09/09 05:02:26;;;;;;;9.38;6.10;;;15.10;99.90;;;;;;5063401;28;20047;-64
2022/09/09 05:04:51;;;;;;;9.50;6.38;;;15.10;99.90;;;;;;5068046;28;20500;-61
2022/09/09 05:07:17;;;;;;;10.52;6.63;;;15.10;99.90;;;;;;5067105;28;20044;-64
2022/09/09 05:09:42;;;;;;;10.45;6.78;;;15.10;99.90;;;;;;5069459;28;20044;-64
2022/09/09 05:12:08;;;;;;;9.45;6.57;;;15.10;99.90;;;;;;5070908;28;20071;-63
2022/09/09 05:14:36;;;;;;;12.90;7.15;;;15.10;99.90;;;;;;5050699;28;20037;-63
2022/09/09 05:17:02;;;;;;;10.82;7.20;;;15.10;99.90;;;;;;5070071;28;20507;-63
2022/09/09 05:19:28;;;;;;;10.70;6.85;;;15.10;99.90;;;;;;5061127;28;20104;-63
2022/09/09 05:21:54;;;;;;;10.27;6.63;;;15.00;99.90;;;;;;5067423;28;20040;-61
2022/09/09 05:24:19;;;;;;;11.45;7.25;;;15.00;99.90;;;;;;5068153;28;20458;-63
2022/09/09 05:26:45;;;;;;;9.35;6.82;;;15.10;99.90;;;;;;5068414;28;20036;-63
2022/09/09 05:29:11;;;;;;;11.52;6.50;;;15.00;99.90;;;;;;5063869;28;20569;-63
2022/09/09 05:31:36;;;;;;;9.35;6.75;;;15.00;99.90;;;;;;5070325;28;20491;-63
2022/09/09 05:34:02;;;;;;;9.50;6.97;;;15.10;99.90;;;;;;5072699;28;20041;-61
2022/09/09 05:36:28;;;;;;;10.88;6.15;;;15.00;99.90;;;;;;5069905;28;20038;-63
2022/09/09 05:38:53;;;;;;;10.45;6.82;;;15.10;99.90;;;;;;5066306;28;20111;-63
2022/09/09 05:41:19;;;;;;;10.27;7.20;;;15.10;99.90;;;;;;5069526;28;20036;-63
2022/09/09 05:43:46;;;;;;;8.80;6.78;;;15.10;99.90;;;;;;5060866;28;20052;-63
2022/09/09 05:46:23;;;;;;;9.45;6.13;;;15.10;99.90;;;;;;5059784;28;20114;-63
2022/09/09 05:48:51;;;;;;;10.98;7.15;;;15.20;99.90;;;;;;5066456;28;20119;-63
2022/09/09 05:51:26;;;;;;;8.27;6.60;;;15.20;99.90;;;;;;5069557;28;20460;-61
2022/09/09 05:53:52;;;;;;;14.73;7.07;;;15.20;99.90;;;;;;5070406;28;20032;-63
2022/09/09 05:56:21;;;;;;;8.82;6.45;;;15.20;99.90;;;;;;5072819;28;20326;-63
2022/09/09 05:58:49;;;;;;;7.88;6.10;;;15.20;99.90;;;;;;5070442;28;20051;-62
2022/09/09 06:01:20;;;;;;;8.95;6.45;;;15.20;99.90;;;;;;5071381;28;20082;-63
2022/09/09 06:03:47;;;;;;;7.82;5.53;;;15.20;99.90;;;;;;5069332;28;20053;-63
2022/09/09 06:06:20;;;;;;;9.52;5.88;;;15.30;99.90;;;;;;5071917;28;20127;-64
2022/09/09 06:08:46;;;;;;;10.05;6.20;;;15.30;99.90;;;;;;5071852;28;20049;-63
2022/09/09 06:11:33;;;;;;;10.77;6.57;;;15.30;99.90;;;;;;5064003;28;20051;-63
2022/09/09 06:14:00;;;;;;;7.90;5.65;;;15.30;99.90;;;;;;5068249;28;20041;-61
2022/09/09 06:16:27;;;;;;;10.52;5.95;;;15.30;99.90;;;;;;5061157;28;20557;-63
2022/09/09 06:18:54;;;;;;;10.98;6.13;;;15.40;99.90;;;;;;5073783;28;20114;-64
2022/09/09 06:21:29;;;;;;;10.68;5.80;;;15.40;99.90;;;;;;5071229;28;20076;-63
2022/09/09 06:23:56;;;;;;;8.48;6.00;;;15.40;99.90;;;;;;5067738;28;20048;-63
2022/09/09 06:26:24;;;;;;;10.07;6.15;;;15.40;99.90;;;;;;5062596;28;20107;-63
2022/09/09 06:28:52;;;;;;;8.20;5.45;;;15.40;99.90;;;;;;5064555;28;20095;-62
2022/09/09 06:31:21;;;;;;;10.38;5.78;;;15.40;99.90;;;;;;5070056;28;20028;-62
2022/09/09 06:33:49;;;;;;;11.55;5.97;;;15.40;99.90;;;;;;5065558;28;20416;-64
2022/09/09 06:36:23;;;;;;;8.95;6.15;;;15.40;99.90;;;;;;5065838;28;20047;-63
2022/09/09 06:38:49;;;;;;;7.85;5.90;;;15.40;99.90;;;;;;5070448;28;20051;-64
2022/09/09 06:41:18;;;;;;;9.32;5.80;;;15.50;99.90;;;;;;5064477;28;20397;-63
2022/09/09 06:43:44;;;;;;;9.43;5.63;;;15.50;99.90;;;;;;5067087;28;20379;-64
2022/09/09 06:46:15;;;;;;;9.27;5.68;;;15.60;99.90;;;;;;5067437;28;20036;-63
2022/09/09 06:48:41;;;;;;;7.10;4.90;;;15.60;99.90;;;;;;5068623;28;20045;-62
2022/09/09 06:51:16;;;;;;;12.38;5.90;;;15.60;99.90;;;;;;5063833;28;20111;-63
2022/09/09 06:53:46;;;;;;;7.88;5.63;;;15.60;99.90;;;;;;5062788;28;20036;-63
2022/09/09 06:56:18;;;;;;;8.82;5.32;;;15.70;99.90;;;;;;5068737;28;20039;-64
2022/09/09 06:58:45;;;;;;;10.88;5.63;;;15.70;99.90;;;;;;5067248;28;20032;-63
2022/09/09 07:01:16;;;;;;;11.77;5.40;;;15.70;99.90;;;;;;5065044;28;20033;-63
2022/09/09 07:03:45;;;;;;;7.60;5.40;;;15.80;99.90;;;;;;5066630;28;20492;-64
2022/09/09 07:06:30;;;;;;;8.90;5.22;;;15.80;99.90;;;;;;5068181;28;20512;-63
2022/09/09 07:09:03;;;;;;;12.68;5.88;;;15.80;99.90;;;;;;5067737;28;20033;-63
2022/09/09 07:11:32;;;;;;;9.65;6.20;;;15.80;99.90;;;;;;5060558;28;20037;-62
2022/09/09 07:13:58;;;;;;;11.95;5.35;;;15.80;99.90;;;;;;5062506;28;20043;-63
2022/09/09 07:16:25;;;;;;;11.65;5.15;;;15.80;99.90;;;;;;5060994;28;20029;-63
2022/09/09 07:18:52;;;;;;;9.70;5.07;;;15.80;99.90;;;;;;5071101;28;20500;-63
2022/09/09 07:21:20;;;;;;;8.13;5.13;;;15.80;99.90;;;;;;5071303;28;20036;-64
2022/09/09 07:23:46;;;;;;;10.15;5.82;;;15.90;99.90;;;;;;5064300;28;20439;-64
2022/09/09 07:26:14;;;;;;;7.72;4.85;;;15.90;99.90;;;;;;5070727;28;20159;-63
2022/09/09 07:28:41;;;;;;;10.60;5.63;;;15.90;99.90;;;;;;5070009;28;20045;-63
2022/09/09 07:31:13;;;;;;;10.18;5.90;;;15.90;99.90;;;;;;5069247;28;20036;-64
2022/09/09 07:33:40;;;;;;;11.95;5.43;;;15.90;99.90;;;;;;5059352;28;21534;-64
2022/09/09 07:36:07;;;;;;;12.60;5.22;;;15.90;99.90;;;;;;5070072;28;20044;-64
2022/09/09 07:38:45;;;;;;;9.75;5.13;;;16.00;99.90;;;;;;5070274;28;20044;-64
2022/09/09 07:41:14;;;;;;;9.23;5.30;;;16.00;99.90;;;;;;5060325;28;20044;-64
2022/09/09 07:43:41;;;;;;;8.63;5.75;;;16.10;99.90;;;;;;5062204;28;20099;-63
2022/09/09 07:46:07;;;;;;;8.23;5.00;;;16.10;99.90;;;;;;5071032;28;20045;-64
2022/09/09 07:48:34;;;;;;;10.20;4.80;;;16.20;99.90;;;;;;5069162;28;20048;-64
2022/09/09 07:51:22;;;;;;;8.63;4.80;;;16.20;99.90;;;;;;5070945;28;20508;-64
2022/09/09 07:53:50;;;;;;;8.93;4.93;;;16.20;99.90;;;;;;5065971;28;20047;-64
2022/09/09 07:56:18;;;;;;;11.68;5.07;;;16.20;99.90;;;;;;5063919;28;20055;-63
2022/09/09 07:58:47;;;;;;;10.43;4.65;;;16.20;99.90;;;;;;5065137;28;20090;-64
2022/09/09 08:01:19;;;;;;;8.63;4.88;;;16.20;99.90;;;;;;5067677;28;20396;-64
2022/09/09 08:03:46;;;;;;;11.13;5.00;;;16.30;99.90;;;;;;5064008;28;20043;-64
2022/09/09 08:06:13;;;;;;;9.93;4.80;;;16.40;99.90;;;;;;5065888;28;20091;-64
2022/09/09 08:08:41;;;;;;;9.23;4.10;;;16.40;99.90;;;;;;5063714;28;21649;-64
2022/09/09 08:11:11;;;;;;;8.10;4.72;;;16.50;99.90;;;;;;5049043;28;20066;-64
2022/09/09 08:13:39;;;;;;;10.38;4.43;;;16.50;99.90;;;;;;5058169;28;20127;-63
2022/09/09 08:16:16;;;;;;;8.63;3.78;;;16.60;99.90;;;;;;5064664;28;20146;-65
2022/09/09 08:18:42;;;;;;;12.23;4.28;;;16.60;99.90;;;;;;5064513;28;20434;-64
2022/09/09 08:21:13;;;;;;;8.85;4.03;;;16.60;99.90;;;;;;5063897;28;20036;-69
2022/09/09 08:23:43;;;;;;;12.35;4.50;;;16.70;99.90;;;;;;5060829;28;20032;-64
2022/09/09 08:26:13;;;;;;;9.52;4.15;;;16.70;99.90;;;;;;5063473;28;20447;-64
2022/09/09 08:28:39;;;;;;;10.30;4.28;;;16.80;99.90;;;;;;5066503;28;20036;-64
2022/09/09 08:31:11;;;;;;;10.70;4.40;;;16.80;99.90;;;;;;5066679;28;20068;-63
2022/09/09 08:33:38;;;;;;;10.75;4.30;;;16.90;99.90;;;;;;5092739;28;20085;-61
2022/09/09 08:36:05;;;;;;;10.02;4.22;;;16.90;99.90;;;;;;5062627;28;20036;-63
2022/09/09 08:38:33;;;;;;;8.70;4.03;;;17.00;99.90;;;;;;5059043;28;20064;-64
2022/09/09 08:41:10;;;;;;;7.90;4.45;;;17.00;99.90;;;;;;5058304;28;20059;-65
2022/09/09 08:43:35;;;;;;;11.20;4.00;;;17.00;99.90;;;;;;5060714;28;20040;-61
2022/09/09 08:46:11;;;;;;;9.85;4.22;;;17.00;99.90;;;;;;5056008;28;20110;-64
2022/09/09 08:48:45;;;;;;;11.07;4.15;;;17.00;99.90;;;;;;5060645;28;20143;-64
2022/09/09 08:51:11;;;;;;;13.00;4.35;;;17.00;99.90;;;;;;5053983;28;20645;-64
2022/09/09 08:53:44;;;;;;;12.05;4.63;;;17.10;99.90;;;;;;5063017;28;20308;-64
2022/09/09 08:56:15;;;;;;;12.35;4.25;;;17.10;99.90;;;;;;5061608;28;20416;-64
2022/09/09 08:58:52;;;;;;;10.60;4.15;;;17.30;99.90;;;;;;5059494;28;20476;-64
2022/09/09 09:01:56;;;;;;;12.85;4.45;;;17.30;99.90;;;;;;5058642;28;20119;-63
2022/09/09 09:04:45;;;;;;;14.75;4.07;;;17.30;99.90;;;;;;5057129;28;20056;-65
2022/09/09 09:07:51;;;;;;;9.02;3.92;;;17.40;99.90;;;;;;5060138;28;20044;-64
2022/09/09 09:10:32;;;;;;;16.45;4.45;;;17.40;99.90;;;;;;5062622;28;20047;-64
2022/09/09 09:13:01;;;;;;;10.20;3.88;;;17.50;99.90;;;;;;5054289;28;20068;-62
2022/09/09 09:15:36;;;;;;;11.55;4.35;;;17.50;99.90;;;;;;5057438;28;20028;-64
2022/09/09 09:18:03;;;;;;;13.30;3.85;;;17.50;99.90;;;;;;5055862;28;20044;-64
2022/09/09 09:20:52;;;;;;;9.38;3.60;;;17.60;99.90;;;;;;5055124;28;20029;-63
2022/09/09 09:23:30;;;;;;;8.55;3.28;;;17.70;99.90;;;;;;5062544;28;20044;-63
2022/09/09 09:26:00;;;;;;;10.77;3.03;;;17.70;99.90;;;;;;5054278;28;20075;-63
2022/09/09 09:28:31;;;;;;;7.40;2.83;;;17.80;99.90;;;;;;5068137;28;20436;-65
2022/09/09 09:31:02;;;;;;;11.15;2.85;;;17.90;99.90;;;;;;5062906;28;20035;-64
2022/09/09 09:33:55;;;;;;;10.48;3.05;;;17.90;99.90;;;;;;5056429;28;20496;-64
2022/09/09 09:36:53;;;;;;;9.75;3.53;;;17.90;99.90;;;;;;5057227;28;20051;-62
2022/09/09 09:39:36;;;;;;;7.90;2.88;;;17.90;99.90;;;;;;5066372;28;20158;-65
2022/09/09 09:42:13;;;;;;;11.70;3.15;;;18.00;99.90;;;;;;5062076;28;20048;-64
2022/09/09 09:44:40;;;;;;;10.13;2.95;;;17.90;99.90;;;;;;5060895;28;20039;-63
2022/09/09 09:47:20;;;;;;;9.63;2.80;;;17.80;99.90;;;;;;5063974;28;20036;-64
2022/09/09 09:50:00;;;;;;;8.50;2.33;;;17.90;99.90;;;;;;5061520;28;20029;-64
2022/09/09 09:52:29;;;;;;;11.43;2.92;;;17.90;99.90;;;;;;5065650;28;20112;-65
2022/09/09 09:54:57;;;;;;;9.63;3.13;;;18.00;99.90;;;;;;5090379;28;20037;-65
2022/09/09 09:57:29;;;;;;;8.65;2.67;;;18.00;99.90;;;;;;5065422;28;20041;-64
2022/09/09 10:00:16;;;;;;;11.43;3.35;;;18.10;99.90;;;;;;5069937;28;20116;-64
2022/09/09 10:02:44;;;;;;;6.35;2.53;;;18.10;99.90;;;;;;5063504;28;20563;-64
2022/09/09 10:05:17;;;;;;;7.85;2.50;;;18.20;99.90;;;;;;5067829;28;20098;-65
2022/09/09 10:07:47;;;;;;;12.73;3.10;;;18.20;99.90;;;;;;5069773;28;20098;-65
2022/09/09 10:10:24;;;;;;;8.80;2.38;;;18.30;99.90;;;;;;5070070;28;20041;-65
2022/09/09 10:13:10;;;;;;;8.38;2.80;;;18.40;99.90;;;;;;5066261;28;20382;-63
2022/09/09 10:15:54;;;;;;;6.38;2.50;;;18.50;99.90;;;;;;5068301;28;20067;-65
2022/09/09 10:18:50;;;;;;;10.93;2.53;;;18.70;99.90;;;;;;5072369;28;20551;-65
2022/09/09 10:21:22;;;;;;;9.45;2.42;;;18.70;99.90;;;;;;5053099;28;20044;-65
2022/09/09 10:24:09;;;;;;;8.63;2.33;;;18.70;99.90;;;;;;5071016;28;20119;-65
2022/09/09 10:26:57;;;;;;;12.15;2.40;;;18.60;99.90;;;;;;5070683;28;20454;-65
2022/09/09 10:29:32;;;;;;;8.02;2.35;;;18.60;99.90;;;;;;5065792;28;20408;-65
2022/09/09 10:32:19;;;;;;;6.80;2.10;;;18.50;99.90;;;;;;5065832;28;20083;-65
2022/09/09 10:35:20;;;;;;;8.13;2.40;;;18.40;99.90;;;;;;5065919;28;20456;-65
2022/09/09 10:38:08;;;;;;;8.25;2.03;;;18.40;99.90;;;;;;5071913;28;20169;-65
2022/09/09 10:40:51;;;;;;;6.50;2.20;;;18.30;99.90;;;;;;5071707;28;20408;-64
2022/09/09 10:43:37;;;;;;;7.32;2.10;;;18.30;99.90;;;;;;5066586;28;20618;-64
2022/09/09 10:46:09;;;;;;;6.65;2.38;;;18.30;99.90;;;;;;5064185;28;20496;-65
2022/09/09 10:49:03;;;;;;;8.70;2.63;;;18.20;99.90;;;;;;5064559;28;20551;-65
2022/09/09 10:52:00;;;;;;;8.95;2.33;;;18.20;99.90;;;;;;5064781;28;20059;-64
2022/09/09 10:54:36;;;;;;;9.25;2.50;;;18.20;99.90;;;;;;5063067;28;20063;-65
2022/09/09 10:57:21;;;;;;;6.53;2.08;;;18.20;99.90;;;;;;5061485;28;20497;-64
2022/09/09 10:59:52;;;;;;;7.28;2.25;;;18.20;99.90;;;;;;5070535;28;20037;-65
2022/09/09 11:02:28;;;;;;;5.97;2.35;;;18.20;99.90;;;;;;5065381;28;20045;-64
2022/09/09 11:05:07;;;;;;;8.15;2.10;;;18.20;99.90;;;;;;5067445;28;20127;-64
2022/09/09 11:07:43;;;;;;;10.43;2.78;;;18.20;99.90;;;;;;5072968;28;20143;-65
2022/09/09 11:10:39;;;;;;;7.13;2.20;;;18.20;99.90;;;;;;5072433;28;20036;-65
2022/09/09 11:13:10;;;;;;;7.82;2.28;;;18.10;99.90;;;;;;5065932;28;20044;-65
2022/09/09 11:15:41;;;;;;;6.53;2.17;;;18.10;99.90;;;;;;5069131;28;20047;-64
2022/09/09 11:18:14;;;;;;;8.30;2.70;;;18.10;99.90;;;;;;5072841;28;20400;-66
2022/09/09 11:20:40;;;;;;;5.05;1.80;;;18.10;99.90;;;;;;5068874;28;20091;-64
2022/09/09 11:23:13;;;;;;;7.80;2.70;;;18.10;99.90;;;;;;5064137;28;20404;-64
2022/09/09 11:25:40;;;;;;;;;;;18.10;99.90;;;;;;5068160;28;20051;-66
2022/09/09 11:28:18;;;;;;;11.25;2.80;;;18.20;99.90;;;;;;5062068;28;19917;-66
2022/09/09 11:30:52;;;;;;;10.50;2.50;;;18.30;99.90;;;;;;5071779;28;20044;-65
2022/09/09 11:33:26;;;;;;;8.15;2.15;;;18.40;99.90;;;;;;5071049;28;20123;-65
2022/09/09 11:36:16;;;;;;;6.88;2.38;;;18.50;99.90;;;;;;5068773;28;20132;-64
2022/09/09 11:38:52;;;;;;;8.32;2.20;;;18.60;99.90;;;;;;5068158;28;20044;-65
2022/09/09 11:41:21;;;;;;;7.90;2.63;;;18.70;99.90;;;;;;5068507;28;20041;-65
2022/09/09 11:43:51;;;;;;;8.88;2.45;;;18.70;99.90;;;;;;5072192;28;20032;-65
2022/09/09 11:46:22;;;;;;;8.38;2.28;;;18.60;99.90;;;;;;5071584;28;20101;-65
2022/09/09 11:49:03;;;;;;;6.78;2.53;;;18.70;99.90;;;;;;5070607;28;20036;-65
2022/09/09 11:51:30;;;;;;;4.70;2.47;;;18.90;99.90;;;;;;5071857;28;20025;-65
2022/09/09 11:54:29;;;;;;;6.75;2.50;;;19.00;99.90;;;;;;5079973;28;20040;-61
2022/09/09 11:56:56;;;;;;;8.25;2.35;;;19.10;99.90;;;;;;5064445;28;20071;-65
2022/09/09 11:59:27;;;;;;;5.70;2.20;;;19.10;99.90;;;;;;5070372;28;20112;-65
2022/09/09 12:01:56;;;;;;;9.45;2.42;;;19.10;99.90;;;;;;5060084;28;20043;-64
2022/09/09 12:04:25;;;;;;;7.97;2.30;;;19.00;99.90;;;;;;5067124;28;20083;-65
2022/09/09 12:07:02;;;;;;;5.72;2.05;;;19.00;99.90;;;;;;5061371;28;20052;-65
2022/09/09 12:09:30;;;;;;;8.02;2.15;;;18.90;99.90;;;;;;5064446;28;20040;-65
2022/09/09 12:12:11;;;;;;;6.32;2.45;;;19.00;99.90;;;;;;5069637;28;20071;-65
2022/09/09 12:14:59;;;;;;;7.38;2.60;;;19.00;99.90;;;;;;5069012;28;20048;-65
2022/09/09 12:17:27;;;;;;;6.97;2.15;;;19.20;99.90;;;;;;5067392;28;20032;-65
2022/09/09 12:20:11;;;;;;;6.53;1.88;;;19.30;99.90;;;;;;5068537;28;20044;-65
2022/09/09 12:23:05;;;;;;;10.57;2.70;;;19.40;99.90;;;;;;5068419;28;20366;-65
2022/09/09 12:25:40;;;;;;;5.97;1.90;;;19.40;99.90;;;;;;5060428;28;20049;-63
2022/09/09 12:28:10;;;;;;;5.10;1.70;;;19.30;99.90;;;;;;5064411;28;20047;-64
2022/09/09 12:31:23;;;;;;;6.43;1.52;;;19.40;99.90;;;;;;5071175;28;20043;-65
2022/09/09 12:33:48;;;;;;;5.30;1.63;;;19.50;99.90;;;;;;5063876;28;20052;-65
2022/09/09 12:36:22;;;;;;;6.22;2.05;;;19.60;99.90;;;;;;5070417;28;20634;-65
2022/09/09 12:38:50;;;;;;;6.35;1.73;;;19.80;99.90;;;;;;5069034;28;20496;-65
2022/09/09 12:41:19;;;;;;;6.95;2.00;;;19.80;99.90;;;;;;5069859;28;20112;-66
2022/09/09 12:43:45;;;;;;;5.70;1.95;;;19.80;99.90;;;;;;5069071;28;20044;-65
2022/09/09 12:46:22;;;;;;;5.15;1.80;;;19.70;99.90;;;;;;5066200;28;20032;-65
2022/09/09 12:48:48;;;;;;;5.57;1.75;;;19.70;99.90;;;;;;5051729;28;20488;-64
2022/09/09 12:51:29;;;;;;;6.82;1.70;;;19.70;99.90;;;;;;5069267;28;20124;-65
2022/09/09 12:53:56;;;;;;;4.55;1.70;;;19.60;99.90;;;;;;5069298;28;20067;-65
2022/09/09 12:56:28;;;;;;;5.85;1.98;;;19.60;99.90;;;;;;5061744;28;20037;-65
2022/09/09 12:58:56;;;;;;;6.05;1.73;;;19.80;99.90;;;;;;5068761;28;20355;-65
2022/09/09 13:01:29;;;;;;;7.30;1.50;;;20.00;99.90;;;;;;5067426;28;20032;-65
2022/09/09 13:03:56;;;;;;;5.22;1.50;;;20.10;99.90;;;;;;5062720;28;20036;-64
2022/09/09 13:06:27;;;;;;;4.47;1.65;;;20.10;99.90;;;;;;5065903;28;20120;-63
2022/09/09 13:08:54;;;;;;;5.85;1.70;;;20.10;99.90;;;;;;5068270;28;20032;-67
2022/09/09 13:11:28;;;;;;;7.40;1.60;;;20.10;99.90;;;;;;5067058;28;20119;-63
2022/09/09 13:13:56;;;;;;;7.43;1.90;;;20.00;99.90;;;;;;5062524;28;20044;-63
2022/09/09 13:16:32;;;;;;;5.60;1.50;;;19.90;99.90;;;;;;5061477;28;20530;-63